Riverside, Washington
Current Conditions -  °F | °C
As of 5:46 AM on Saturday 20 Dec 2014 (Local Time) from KOMK Reporting Station
Light Rain Light Rain  
Wind Chill: 34°   Ceiling: 1000
Heat Index: 34°   Visibility: 1.7mi
Dew Point: 33°   Wind: 0mph
Humidity: 96%   Direction: NA
Pressure: 29.86"   Gusts: NA
Location:  48.5°N, 119.51°W
Report Text: KOMK 201346Z AUTO 00000KT 1 3/4SM -RA BR OVC010 01/01 A2986 RMK AO2 P0003 T00110006
Loading
Personal Weather Stations






























Interactive Weather Map New forecast layout! Learn more

10-Day Weather Forecast

Advertisements
Track Severe Weather on mobile